sensor_id;sensor_type;location;lat;lon;timestamp;P1;durP1;ratioP1;P2;durP2;ratioP2
18100;SDS011;9177;49.156;8.142;2023-08-30T00:02:04;1.63;;;1.00;;
18100;SDS011;9177;49.156;8.142;2023-08-30T00:04:35;1.20;;;1.10;;
18100;SDS011;9177;49.156;8.142;2023-08-30T00:07:02;1.45;;;1.08;;
18100;SDS011;9177;49.156;8.142;2023-08-30T00:09:29;1.33;;;1.00;;
18100;SDS011;9177;49.156;8.142;2023-08-30T00:11:56;1.10;;;1.00;;
18100;SDS011;9177;49.156;8.142;2023-08-30T00:14:23;0.98;;;0.93;;
18100;SDS011;9177;49.156;8.142;2023-08-30T00:16:50;2.53;;;1.30;;
18100;SDS011;9177;49.156;8.142;2023-08-30T00:19:17;2.17;;;1.40;;
18100;SDS011;9177;49.156;8.142;2023-08-30T00:21:49;1.02;;;0.90;;
18100;SDS011;9177;49.156;8.142;2023-08-30T00:24:16;1.17;;;1.02;;
18100;SDS011;9177;49.156;8.142;2023-08-30T00:26:44;0.98;;;0.98;;
18100;SDS011;9177;49.156;8.142;2023-08-30T00:29:11;1.13;;;1.02;;
18100;SDS011;9177;49.156;8.142;2023-08-30T00:31:38;0.90;;;0.90;;
18100;SDS011;9177;49.156;8.142;2023-08-30T00:34:05;1.30;;;1.13;;
18100;SDS011;9177;49.156;8.142;2023-08-30T00:36:32;1.20;;;1.10;;
18100;SDS011;9177;49.156;8.142;2023-08-30T00:39:00;1.38;;;1.15;;
18100;SDS011;9177;49.156;8.142;2023-08-30T00:41:30;1.48;;;1.00;;
18100;SDS011;9177;49.156;8.142;2023-08-30T00:43:57;1.23;;;1.15;;
18100;SDS011;9177;49.156;8.142;2023-08-30T00:46:24;0.88;;;0.73;;
18100;SDS011;9177;49.156;8.142;2023-08-30T00:48:51;1.10;;;1.00;;
18100;SDS011;9177;49.156;8.142;2023-08-30T00:51:19;1.17;;;1.08;;
18100;SDS011;9177;49.156;8.142;2023-08-30T00:53:47;1.05;;;0.90;;
18100;SDS011;9177;49.156;8.142;2023-08-30T00:56:15;1.00;;;0.90;;
18100;SDS011;9177;49.156;8.142;2023-08-30T00:58:43;2.15;;;1.00;;
18100;SDS011;9177;49.156;8.142;2023-08-30T01:01:10;2.63;;;1.20;;
18100;SDS011;9177;49.156;8.142;2023-08-30T01:03:39;3.45;;;1.00;;
18100;SDS011;9177;49.156;8.142;2023-08-30T01:06:06;1.20;;;0.93;;
18100;SDS011;9177;49.156;8.142;2023-08-30T01:08:33;2.40;;;1.02;;
18100;SDS011;9177;49.156;8.142;2023-08-30T01:11:02;1.33;;;1.05;;
18100;SDS011;9177;49.156;8.142;2023-08-30T01:13:40;1.20;;;1.10;;
18100;SDS011;9177;49.156;8.142;2023-08-30T01:16:10;1.30;;;1.00;;
18100;SDS011;9177;49.156;8.142;2023-08-30T01:18:38;1.38;;;1.27;;
18100;SDS011;9177;49.156;8.142;2023-08-30T01:21:09;1.52;;;1.00;;
18100;SDS011;9177;49.156;8.142;2023-08-30T01:23:46;1.27;;;1.17;;
18100;SDS011;9177;49.156;8.142;2023-08-30T01:26:20;0.95;;;0.95;;
18100;SDS011;9177;49.156;8.142;2023-08-30T01:28:54;1.13;;;1.02;;
18100;SDS011;9177;49.156;8.142;2023-08-30T01:31:23;1.40;;;0.93;;
18100;SDS011;9177;49.156;8.142;2023-08-30T01:33:51;2.22;;;1.00;;
18100;SDS011;9177;49.156;8.142;2023-08-30T01:36:19;2.88;;;1.13;;
18100;SDS011;9177;49.156;8.142;2023-08-30T01:38:45;1.30;;;0.93;;
18100;SDS011;9177;49.156;8.142;2023-08-30T01:41:13;1.13;;;1.00;;
18100;SDS011;9177;49.156;8.142;2023-08-30T01:43:41;2.10;;;0.93;;
18100;SDS011;9177;49.156;8.142;2023-08-30T01:46:10;1.23;;;1.13;;
18100;SDS011;9177;49.156;8.142;2023-08-30T01:48:37;1.58;;;1.00;;
18100;SDS011;9177;49.156;8.142;2023-08-30T01:51:05;1.27;;;1.02;;
18100;SDS011;9177;49.156;8.142;2023-08-30T01:53:34;1.33;;;1.17;;
18100;SDS011;9177;49.156;8.142;2023-08-30T01:56:02;0.80;;;0.80;;
18100;SDS011;9177;49.156;8.142;2023-08-30T01:58:30;0.82;;;0.65;;
18100;SDS011;9177;49.156;8.142;2023-08-30T02:00:57;2.33;;;0.95;;
18100;SDS011;9177;49.156;8.142;2023-08-30T02:03:27;1.13;;;1.00;;
18100;SDS011;9177;49.156;8.142;2023-08-30T02:05:57;1.55;;;0.90;;
18100;SDS011;9177;49.156;8.142;2023-08-30T02:08:34;1.15;;;0.98;;
18100;SDS011;9177;49.156;8.142;2023-08-30T02:11:04;1.08;;;1.00;;
18100;SDS011;9177;49.156;8.142;2023-08-30T02:13:38;1.10;;;1.00;;
18100;SDS011;9177;49.156;8.142;2023-08-30T02:16:07;0.98;;;0.70;;
18100;SDS011;9177;49.156;8.142;2023-08-30T02:18:37;1.50;;;0.90;;
18100;SDS011;9177;49.156;8.142;2023-08-30T02:21:05;1.05;;;0.90;;
18100;SDS011;9177;49.156;8.142;2023-08-30T02:23:32;1.15;;;0.90;;
18100;SDS011;9177;49.156;8.142;2023-08-30T02:25:59;1.20;;;1.10;;
18100;SDS011;9177;49.156;8.142;2023-08-30T02:28:28;1.60;;;1.17;;
18100;SDS011;9177;49.156;8.142;2023-08-30T02:30:55;1.25;;;0.90;;
18100;SDS011;9177;49.156;8.142;2023-08-30T02:33:22;2.85;;;1.10;;
18100;SDS011;9177;49.156;8.142;2023-08-30T02:35:51;1.15;;;1.00;;
18100;SDS011;9177;49.156;8.142;2023-08-30T02:38:19;1.20;;;0.95;;
18100;SDS011;9177;49.156;8.142;2023-08-30T02:40:46;1.15;;;1.05;;
18100;SDS011;9177;49.156;8.142;2023-08-30T02:43:13;1.88;;;1.30;;
18100;SDS011;9177;49.156;8.142;2023-08-30T02:45:40;1.65;;;0.93;;
18100;SDS011;9177;49.156;8.142;2023-08-30T02:48:07;1.02;;;0.93;;
18100;SDS011;9177;49.156;8.142;2023-08-30T02:50:34;1.20;;;1.10;;
18100;SDS011;9177;49.156;8.142;2023-08-30T02:53:03;1.23;;;1.13;;
18100;SDS011;9177;49.156;8.142;2023-08-30T02:55:33;1.02;;;0.80;;
18100;SDS011;9177;49.156;8.142;2023-08-30T02:58:00;1.10;;;1.00;;
18100;SDS011;9177;49.156;8.142;2023-08-30T03:00:28;1.55;;;0.95;;
18100;SDS011;9177;49.156;8.142;2023-08-30T03:02:55;1.13;;;1.02;;
18100;SDS011;9177;49.156;8.142;2023-08-30T03:05:22;1.35;;;1.25;;
18100;SDS011;9177;49.156;8.142;2023-08-30T03:07:53;0.93;;;0.82;;
18100;SDS011;9177;49.156;8.142;2023-08-30T03:10:21;1.70;;;0.90;;
18100;SDS011;9177;49.156;8.142;2023-08-30T03:12:48;0.90;;;0.90;;
18100;SDS011;9177;49.156;8.142;2023-08-30T03:15:15;1.45;;;1.02;;
18100;SDS011;9177;49.156;8.142;2023-08-30T03:17:42;1.20;;;1.10;;
18100;SDS011;9177;49.156;8.142;2023-08-30T03:20:10;1.20;;;1.10;;
18100;SDS011;9177;49.156;8.142;2023-08-30T03:22:37;1.40;;;0.98;;
18100;SDS011;9177;49.156;8.142;2023-08-30T03:25:05;1.40;;;1.00;;
18100;SDS011;9177;49.156;8.142;2023-08-30T03:27:35;0.85;;;0.80;;
18100;SDS011;9177;49.156;8.142;2023-08-30T03:30:03;1.17;;;0.82;;
18100;SDS011;9177;49.156;8.142;2023-08-30T03:32:31;0.98;;;0.98;;
18100;SDS011;9177;49.156;8.142;2023-08-30T03:34:58;1.45;;;1.00;;
18100;SDS011;9177;49.156;8.142;2023-08-30T03:37:29;1.10;;;1.00;;
18100;SDS011;9177;49.156;8.142;2023-08-30T03:39:57;1.10;;;1.05;;
18100;SDS011;9177;49.156;8.142;2023-08-30T03:42:24;0.90;;;0.90;;
18100;SDS011;9177;49.156;8.142;2023-08-30T03:44:53;1.50;;;1.10;;
18100;SDS011;9177;49.156;8.142;2023-08-30T03:47:21;1.70;;;1.05;;
18100;SDS011;9177;49.156;8.142;2023-08-30T03:49:48;1.00;;;1.00;;
18100;SDS011;9177;49.156;8.142;2023-08-30T03:52:16;1.30;;;1.20;;
18100;SDS011;9177;49.156;8.142;2023-08-30T03:54:43;1.20;;;1.10;;
18100;SDS011;9177;49.156;8.142;2023-08-30T03:57:10;1.00;;;1.00;;
18100;SDS011;9177;49.156;8.142;2023-08-30T03:59:37;0.93;;;0.93;;
18100;SDS011;9177;49.156;8.142;2023-08-30T04:02:06;0.88;;;0.88;;
18100;SDS011;9177;49.156;8.142;2023-08-30T04:04:33;0.90;;;0.90;;
18100;SDS011;9177;49.156;8.142;2023-08-30T04:07:00;1.20;;;1.10;;
18100;SDS011;9177;49.156;8.142;2023-08-30T04:09:27;1.00;;;0.82;;
18100;SDS011;9177;49.156;8.142;2023-08-30T04:11:54;1.30;;;1.08;;
18100;SDS011;9177;49.156;8.142;2023-08-30T04:14:23;1.33;;;1.10;;
18100;SDS011;9177;49.156;8.142;2023-08-30T04:16:51;1.75;;;1.20;;
18100;SDS011;9177;49.156;8.142;2023-08-30T04:19:20;1.20;;;0.90;;
18100;SDS011;9177;49.156;8.142;2023-08-30T04:21:47;1.30;;;1.20;;
18100;SDS011;9177;49.156;8.142;2023-08-30T04:24:14;0.98;;;0.98;;
18100;SDS011;9177;49.156;8.142;2023-08-30T04:26:41;1.40;;;1.02;;
18100;SDS011;9177;49.156;8.142;2023-08-30T04:29:08;1.30;;;1.23;;
18100;SDS011;9177;49.156;8.142;2023-08-30T04:31:35;1.23;;;1.00;;
18100;SDS011;9177;49.156;8.142;2023-08-30T04:34:02;1.35;;;1.10;;
18100;SDS011;9177;49.156;8.142;2023-08-30T04:36:30;0.90;;;0.90;;
18100;SDS011;9177;49.156;8.142;2023-08-30T04:38:58;2.05;;;1.00;;
18100;SDS011;9177;49.156;8.142;2023-08-30T04:41:25;1.50;;;1.00;;
18100;SDS011;9177;49.156;8.142;2023-08-30T04:43:52;1.38;;;1.08;;
18100;SDS011;9177;49.156;8.142;2023-08-30T04:46:19;1.98;;;1.20;;
18100;SDS011;9177;49.156;8.142;2023-08-30T04:48:46;1.10;;;1.00;;
18100;SDS011;9177;49.156;8.142;2023-08-30T04:51:13;0.98;;;0.90;;
18100;SDS011;9177;49.156;8.142;2023-08-30T04:53:42;1.95;;;1.00;;
18100;SDS011;9177;49.156;8.142;2023-08-30T04:56:10;1.00;;;0.95;;
18100;SDS011;9177;49.156;8.142;2023-08-30T04:58:38;0.80;;;0.80;;
18100;SDS011;9177;49.156;8.142;2023-08-30T05:01:05;0.82;;;0.82;;
18100;SDS011;9177;49.156;8.142;2023-08-30T05:03:32;1.15;;;1.05;;
18100;SDS011;9177;49.156;8.142;2023-08-30T05:05:59;1.05;;;0.98;;
18100;SDS011;9177;49.156;8.142;2023-08-30T05:08:27;1.00;;;1.00;;
18100;SDS011;9177;49.156;8.142;2023-08-30T05:10:56;1.10;;;1.05;;
18100;SDS011;9177;49.156;8.142;2023-08-30T05:13:23;1.20;;;1.10;;
18100;SDS011;9177;49.156;8.142;2023-08-30T05:15:50;1.55;;;1.00;;
18100;SDS011;9177;49.156;8.142;2023-08-30T05:18:18;1.20;;;1.10;;
18100;SDS011;9177;49.156;8.142;2023-08-30T05:20:46;1.10;;;1.10;;
18100;SDS011;9177;49.156;8.142;2023-08-30T05:23:13;0.90;;;0.90;;
18100;SDS011;9177;49.156;8.142;2023-08-30T05:25:40;0.93;;;0.88;;
18100;SDS011;9177;49.156;8.142;2023-08-30T05:28:09;1.15;;;1.00;;
18100;SDS011;9177;49.156;8.142;2023-08-30T05:30:36;1.65;;;1.10;;
18100;SDS011;9177;49.156;8.142;2023-08-30T05:33:05;0.93;;;0.93;;
18100;SDS011;9177;49.156;8.142;2023-08-30T05:35:37;1.02;;;1.00;;
18100;SDS011;9177;49.156;8.142;2023-08-30T05:38:08;0.90;;;0.90;;
18100;SDS011;9177;49.156;8.142;2023-08-30T05:40:36;1.00;;;0.90;;
18100;SDS011;9177;49.156;8.142;2023-08-30T05:43:09;1.35;;;1.20;;
18100;SDS011;9177;49.156;8.142;2023-08-30T05:45:36;1.08;;;0.98;;
18100;SDS011;9177;49.156;8.142;2023-08-30T05:48:04;1.30;;;1.15;;
18100;SDS011;9177;49.156;8.142;2023-08-30T05:50:32;1.13;;;1.10;;
18100;SDS011;9177;49.156;8.142;2023-08-30T05:52:59;1.15;;;0.80;;
18100;SDS011;9177;49.156;8.142;2023-08-30T05:55:26;1.10;;;1.00;;
18100;SDS011;9177;49.156;8.142;2023-08-30T05:57:53;1.23;;;1.02;;
18100;SDS011;9177;49.156;8.142;2023-08-30T06:00:23;1.10;;;1.00;;
18100;SDS011;9177;49.156;8.142;2023-08-30T06:02:53;1.17;;;1.10;;
18100;SDS011;9177;49.156;8.142;2023-08-30T06:05:20;1.73;;;1.10;;
18100;SDS011;9177;49.156;8.142;2023-08-30T06:07:49;1.40;;;1.30;;
18100;SDS011;9177;49.156;8.142;2023-08-30T06:10:16;1.17;;;1.08;;
18100;SDS011;9177;49.156;8.142;2023-08-30T06:12:44;0.98;;;0.98;;
18100;SDS011;9177;49.156;8.142;2023-08-30T06:15:11;1.17;;;1.10;;
18100;SDS011;9177;49.156;8.142;2023-08-30T06:17:40;1.25;;;1.15;;
18100;SDS011;9177;49.156;8.142;2023-08-30T06:20:11;1.20;;;1.15;;
18100;SDS011;9177;49.156;8.142;2023-08-30T06:22:39;1.83;;;1.15;;
18100;SDS011;9177;49.156;8.142;2023-08-30T06:25:08;1.27;;;1.17;;
18100;SDS011;9177;49.156;8.142;2023-08-30T06:27:54;1.42;;;1.33;;
18100;SDS011;9177;49.156;8.142;2023-08-30T06:30:21;1.42;;;1.30;;
18100;SDS011;9177;49.156;8.142;2023-08-30T06:32:50;1.30;;;1.20;;
18100;SDS011;9177;49.156;8.142;2023-08-30T06:35:18;1.35;;;1.25;;
18100;SDS011;9177;49.156;8.142;2023-08-30T06:37:45;1.58;;;1.33;;
18100;SDS011;9177;49.156;8.142;2023-08-30T06:40:12;3.95;;;1.40;;
18100;SDS011;9177;49.156;8.142;2023-08-30T06:42:39;2.80;;;1.88;;
18100;SDS011;9177;49.156;8.142;2023-08-30T06:45:07;2.72;;;2.53;;
18100;SDS011;9177;49.156;8.142;2023-08-30T06:47:35;3.13;;;2.85;;
18100;SDS011;9177;49.156;8.142;2023-08-30T06:50:04;3.35;;;2.90;;
18100;SDS011;9177;49.156;8.142;2023-08-30T06:52:34;3.67;;;3.33;;
18100;SDS011;9177;49.156;8.142;2023-08-30T06:55:02;3.15;;;2.85;;
18100;SDS011;9177;49.156;8.142;2023-08-30T06:57:30;2.85;;;2.65;;
18100;SDS011;9177;49.156;8.142;2023-08-30T06:59:57;2.80;;;2.60;;
18100;SDS011;9177;49.156;8.142;2023-08-30T07:02:34;2.60;;;2.40;;
18100;SDS011;9177;49.156;8.142;2023-08-30T07:05:06;2.50;;;2.30;;
18100;SDS011;9177;49.156;8.142;2023-08-30T07:07:34;2.42;;;2.22;;
18100;SDS011;9177;49.156;8.142;2023-08-30T07:10:02;2.40;;;2.20;;
18100;SDS011;9177;49.156;8.142;2023-08-30T07:12:31;4.18;;;2.38;;
18100;SDS011;9177;49.156;8.142;2023-08-30T07:15:01;2.92;;;2.55;;
18100;SDS011;9177;49.156;8.142;2023-08-30T07:17:30;3.90;;;2.20;;
18100;SDS011;9177;49.156;8.142;2023-08-30T07:19:57;3.22;;;1.88;;
18100;SDS011;9177;49.156;8.142;2023-08-30T07:22:27;2.00;;;1.90;;
18100;SDS011;9177;49.156;8.142;2023-08-30T07:24:56;2.38;;;2.17;;
18100;SDS011;9177;49.156;8.142;2023-08-30T07:27:24;2.45;;;2.22;;
18100;SDS011;9177;49.156;8.142;2023-08-30T07:29:53;1.90;;;1.80;;
18100;SDS011;9177;49.156;8.142;2023-08-30T07:32:21;1.98;;;1.80;;
18100;SDS011;9177;49.156;8.142;2023-08-30T07:34:48;2.67;;;1.70;;
18100;SDS011;9177;49.156;8.142;2023-08-30T07:37:18;1.75;;;1.65;;
18100;SDS011;9177;49.156;8.142;2023-08-30T07:39:48;1.83;;;1.73;;
18100;SDS011;9177;49.156;8.142;2023-08-30T07:42:17;2.28;;;1.70;;
18100;SDS011;9177;49.156;8.142;2023-08-30T07:44:44;1.70;;;1.60;;
18100;SDS011;9177;49.156;8.142;2023-08-30T07:47:12;2.03;;;1.83;;
18100;SDS011;9177;49.156;8.142;2023-08-30T07:49:42;1.95;;;1.60;;
18100;SDS011;9177;49.156;8.142;2023-08-30T07:52:09;1.88;;;1.77;;
18100;SDS011;9177;49.156;8.142;2023-08-30T07:54:38;2.38;;;1.50;;
18100;SDS011;9177;49.156;8.142;2023-08-30T07:57:08;1.92;;;1.70;;
18100;SDS011;9177;49.156;8.142;2023-08-30T07:59:36;1.80;;;1.70;;
18100;SDS011;9177;49.156;8.142;2023-08-30T08:02:04;1.67;;;1.50;;
18100;SDS011;9177;49.156;8.142;2023-08-30T08:04:33;1.83;;;1.70;;
18100;SDS011;9177;49.156;8.142;2023-08-30T08:07:01;1.60;;;1.50;;
18100;SDS011;9177;49.156;8.142;2023-08-30T08:09:30;1.52;;;1.42;;
18100;SDS011;9177;49.156;8.142;2023-08-30T08:11:59;1.92;;;1.83;;
18100;SDS011;9177;49.156;8.142;2023-08-30T08:14:28;1.88;;;1.77;;
18100;SDS011;9177;49.156;8.142;2023-08-30T08:16:55;1.52;;;1.42;;
18100;SDS011;9177;49.156;8.142;2023-08-30T08:19:23;1.90;;;1.73;;
18100;SDS011;9177;49.156;8.142;2023-08-30T08:21:50;1.70;;;1.60;;
18100;SDS011;9177;49.156;8.142;2023-08-30T08:24:18;1.90;;;1.80;;
18100;SDS011;9177;49.156;8.142;2023-08-30T08:26:46;1.60;;;1.50;;
18100;SDS011;9177;49.156;8.142;2023-08-30T08:29:13;1.70;;;1.60;;
18100;SDS011;9177;49.156;8.142;2023-08-30T08:31:41;1.50;;;1.40;;
18100;SDS011;9177;49.156;8.142;2023-08-30T08:34:09;2.00;;;1.77;;
18100;SDS011;9177;49.156;8.142;2023-08-30T08:36:38;3.58;;;1.83;;
18100;SDS011;9177;49.156;8.142;2023-08-30T08:39:06;2.33;;;2.10;;
18100;SDS011;9177;49.156;8.142;2023-08-30T08:41:37;2.03;;;1.45;;
18100;SDS011;9177;49.156;8.142;2023-08-30T08:44:07;2.13;;;1.90;;
18100;SDS011;9177;49.156;8.142;2023-08-30T08:46:35;2.28;;;1.83;;
18100;SDS011;9177;49.156;8.142;2023-08-30T08:49:08;2.83;;;2.08;;
18100;SDS011;9177;49.156;8.142;2023-08-30T08:51:38;3.10;;;1.95;;
18100;SDS011;9177;49.156;8.142;2023-08-30T08:54:07;2.70;;;1.95;;
18100;SDS011;9177;49.156;8.142;2023-08-30T08:56:35;2.97;;;2.28;;
18100;SDS011;9177;49.156;8.142;2023-08-30T08:59:04;3.40;;;2.22;;
18100;SDS011;9177;49.156;8.142;2023-08-30T09:01:33;4.40;;;2.10;;
18100;SDS011;9177;49.156;8.142;2023-08-30T09:04:05;2.35;;;2.00;;
18100;SDS011;9177;49.156;8.142;2023-08-30T09:06:35;3.05;;;1.80;;
18100;SDS011;9177;49.156;8.142;2023-08-30T09:09:03;2.38;;;2.00;;
18100;SDS011;9177;49.156;8.142;2023-08-30T09:11:32;2.75;;;2.00;;
18100;SDS011;9177;49.156;8.142;2023-08-30T09:14:01;2.70;;;2.03;;
18100;SDS011;9177;49.156;8.142;2023-08-30T09:16:29;3.10;;;2.10;;
18100;SDS011;9177;49.156;8.142;2023-08-30T09:18:57;3.53;;;2.20;;
18100;SDS011;9177;49.156;8.142;2023-08-30T09:21:26;3.20;;;2.22;;
18100;SDS011;9177;49.156;8.142;2023-08-30T09:24:00;3.78;;;2.00;;
18100;SDS011;9177;49.156;8.142;2023-08-30T09:26:29;2.53;;;2.10;;
18100;SDS011;9177;49.156;8.142;2023-08-30T09:29:01;3.67;;;2.10;;
18100;SDS011;9177;49.156;8.142;2023-08-30T09:31:33;2.55;;;2.10;;
18100;SDS011;9177;49.156;8.142;2023-08-30T09:34:01;2.80;;;1.85;;
18100;SDS011;9177;49.156;8.142;2023-08-30T09:36:40;2.85;;;2.08;;
18100;SDS011;9177;49.156;8.142;2023-08-30T09:39:11;2.78;;;1.98;;
18100;SDS011;9177;49.156;8.142;2023-08-30T09:41:41;3.85;;;2.03;;
18100;SDS011;9177;49.156;8.142;2023-08-30T09:44:09;2.40;;;2.20;;
18100;SDS011;9177;49.156;8.142;2023-08-30T09:46:40;3.10;;;2.40;;
18100;SDS011;9177;49.156;8.142;2023-08-30T09:49:09;2.85;;;1.88;;
18100;SDS011;9177;49.156;8.142;2023-08-30T09:51:37;3.08;;;1.80;;
18100;SDS011;9177;49.156;8.142;2023-08-30T09:54:10;2.88;;;1.95;;
18100;SDS011;9177;49.156;8.142;2023-08-30T09:56:42;3.25;;;2.00;;
18100;SDS011;9177;49.156;8.142;2023-08-30T09:59:10;2.17;;;1.98;;
18100;SDS011;9177;49.156;8.142;2023-08-30T10:01:42;2.92;;;2.05;;
18100;SDS011;9177;49.156;8.142;2023-08-30T10:04:11;2.40;;;1.90;;
18100;SDS011;9177;49.156;8.142;2023-08-30T10:06:41;2.63;;;1.88;;
18100;SDS011;9177;49.156;8.142;2023-08-30T10:09:09;4.25;;;1.95;;
18100;SDS011;9177;49.156;8.142;2023-08-30T10:11:36;2.88;;;1.88;;
18100;SDS011;9177;49.156;8.142;2023-08-30T10:14:04;2.28;;;2.08;;
18100;SDS011;9177;49.156;8.142;2023-08-30T10:16:36;3.38;;;1.88;;
18100;SDS011;9177;49.156;8.142;2023-08-30T10:19:11;2.28;;;1.65;;
18100;SDS011;9177;49.156;8.142;2023-08-30T10:21:44;2.35;;;2.00;;
18100;SDS011;9177;49.156;8.142;2023-08-30T10:24:14;2.63;;;2.03;;
18100;SDS011;9177;49.156;8.142;2023-08-30T10:26:45;2.22;;;1.67;;
18100;SDS011;9177;49.156;8.142;2023-08-30T10:29:13;2.10;;;1.73;;
18100;SDS011;9177;49.156;8.142;2023-08-30T10:31:42;2.67;;;1.50;;
18100;SDS011;9177;49.156;8.142;2023-08-30T10:34:13;2.45;;;1.95;;
18100;SDS011;9177;49.156;8.142;2023-08-30T10:36:41;2.05;;;1.70;;
18100;SDS011;9177;49.156;8.142;2023-08-30T10:39:11;2.75;;;2.10;;
18100;SDS011;9177;49.156;8.142;2023-08-30T10:41:53;1.90;;;1.70;;
18100;SDS011;9177;49.156;8.142;2023-08-30T10:44:22;3.42;;;1.90;;
18100;SDS011;9177;49.156;8.142;2023-08-30T10:46:53;1.92;;;1.80;;
18100;SDS011;9177;49.156;8.142;2023-08-30T10:49:21;2.33;;;1.70;;
18100;SDS011;9177;49.156;8.142;2023-08-30T10:51:59;2.10;;;1.60;;
18100;SDS011;9177;49.156;8.142;2023-08-30T10:54:36;1.95;;;1.52;;
18100;SDS011;9177;49.156;8.142;2023-08-30T10:57:04;2.50;;;1.90;;
18100;SDS011;9177;49.156;8.142;2023-08-30T10:59:31;1.67;;;1.58;;
18100;SDS011;9177;49.156;8.142;2023-08-30T11:02:01;2.13;;;1.80;;
18100;SDS011;9177;49.156;8.142;2023-08-30T11:04:29;1.95;;;1.67;;
18100;SDS011;9177;49.156;8.142;2023-08-30T11:06:57;2.20;;;1.58;;
18100;SDS011;9177;49.156;8.142;2023-08-30T11:09:26;1.58;;;1.48;;
18100;SDS011;9177;49.156;8.142;2023-08-30T11:11:53;2.15;;;1.92;;
18100;SDS011;9177;49.156;8.142;2023-08-30T11:14:20;2.53;;;1.80;;
18100;SDS011;9177;49.156;8.142;2023-08-30T11:16:47;1.63;;;1.52;;
18100;SDS011;9177;49.156;8.142;2023-08-30T11:19:14;2.67;;;2.10;;
18100;SDS011;9177;49.156;8.142;2023-08-30T11:21:43;2.13;;;1.60;;
18100;SDS011;9177;49.156;8.142;2023-08-30T11:24:16;1.85;;;1.42;;
18100;SDS011;9177;49.156;8.142;2023-08-30T11:26:43;2.72;;;1.58;;
18100;SDS011;9177;49.156;8.142;2023-08-30T11:29:11;1.60;;;1.50;;
18100;SDS011;9177;49.156;8.142;2023-08-30T11:31:39;1.60;;;1.50;;
18100;SDS011;9177;49.156;8.142;2023-08-30T11:34:09;1.75;;;1.50;;
18100;SDS011;9177;49.156;8.142;2023-08-30T11:36:36;1.80;;;1.70;;
18100;SDS011;9177;49.156;8.142;2023-08-30T11:39:05;1.77;;;1.48;;
18100;SDS011;9177;49.156;8.142;2023-08-30T11:41:35;1.90;;;1.70;;
18100;SDS011;9177;49.156;8.142;2023-08-30T11:44:09;1.70;;;1.40;;
18100;SDS011;9177;49.156;8.142;2023-08-30T11:46:37;2.17;;;1.55;;
18100;SDS011;9177;49.156;8.142;2023-08-30T11:49:04;1.40;;;1.30;;
18100;SDS011;9177;49.156;8.142;2023-08-30T11:51:32;1.83;;;1.65;;
18100;SDS011;9177;49.156;8.142;2023-08-30T11:54:00;2.08;;;1.40;;
18100;SDS011;9177;49.156;8.142;2023-08-30T11:56:28;2.25;;;1.42;;
18100;SDS011;9177;49.156;8.142;2023-08-30T11:58:58;1.52;;;1.40;;
18100;SDS011;9177;49.156;8.142;2023-08-30T12:01:25;1.65;;;1.35;;
18100;SDS011;9177;49.156;8.142;2023-08-30T12:03:52;3.00;;;1.50;;
18100;SDS011;9177;49.156;8.142;2023-08-30T12:06:22;1.83;;;1.33;;
18100;SDS011;9177;49.156;8.142;2023-08-30T12:08:56;1.88;;;1.45;;
18100;SDS011;9177;49.156;8.142;2023-08-30T12:11:24;1.40;;;1.30;;
18100;SDS011;9177;49.156;8.142;2023-08-30T12:13:54;1.45;;;1.35;;
18100;SDS011;9177;49.156;8.142;2023-08-30T12:16:30;1.52;;;1.42;;
18100;SDS011;9177;49.156;8.142;2023-08-30T12:19:06;2.35;;;1.38;;
18100;SDS011;9177;49.156;8.142;2023-08-30T12:21:38;1.67;;;1.40;;
18100;SDS011;9177;49.156;8.142;2023-08-30T12:24:07;1.50;;;1.40;;
18100;SDS011;9177;49.156;8.142;2023-08-30T12:26:35;1.45;;;1.27;;
18100;SDS011;9177;49.156;8.142;2023-08-30T12:29:04;1.65;;;1.13;;
18100;SDS011;9177;49.156;8.142;2023-08-30T12:31:32;1.40;;;1.30;;
18100;SDS011;9177;49.156;8.142;2023-08-30T12:33:59;1.40;;;1.30;;
18100;SDS011;9177;49.156;8.142;2023-08-30T12:36:27;1.63;;;1.52;;
18100;SDS011;9177;49.156;8.142;2023-08-30T12:38:54;1.13;;;1.13;;
18100;SDS011;9177;49.156;8.142;2023-08-30T12:41:21;1.17;;;1.08;;
18100;SDS011;9177;49.156;8.142;2023-08-30T12:43:49;1.65;;;1.40;;
18100;SDS011;9177;49.156;8.142;2023-08-30T12:46:18;1.30;;;1.20;;
18100;SDS011;9177;49.156;8.142;2023-08-30T12:48:45;2.03;;;1.27;;
18100;SDS011;9177;49.156;8.142;2023-08-30T12:51:13;1.98;;;1.50;;
18100;SDS011;9177;49.156;8.142;2023-08-30T12:53:40;1.30;;;1.20;;
18100;SDS011;9177;49.156;8.142;2023-08-30T12:56:08;1.42;;;1.33;;
18100;SDS011;9177;49.156;8.142;2023-08-30T12:58:35;1.20;;;1.05;;
18100;SDS011;9177;49.156;8.142;2023-08-30T13:01:02;1.98;;;1.58;;
18100;SDS011;9177;49.156;8.142;2023-08-30T13:03:31;1.27;;;1.15;;
18100;SDS011;9177;49.156;8.142;2023-08-30T13:05:59;1.73;;;1.40;;
18100;SDS011;9177;49.156;8.142;2023-08-30T13:08:26;1.95;;;1.20;;
18100;SDS011;9177;49.156;8.142;2023-08-30T13:10:54;1.77;;;1.58;;
18100;SDS011;9177;49.156;8.142;2023-08-30T13:13:21;1.67;;;1.40;;
18100;SDS011;9177;49.156;8.142;2023-08-30T13:15:49;1.27;;;1.17;;
18100;SDS011;9177;49.156;8.142;2023-08-30T13:18:17;1.92;;;1.40;;
18100;SDS011;9177;49.156;8.142;2023-08-30T13:20:46;1.38;;;1.27;;
18100;SDS011;9177;49.156;8.142;2023-08-30T13:23:13;1.20;;;1.10;;
18100;SDS011;9177;49.156;8.142;2023-08-30T13:25:40;1.25;;;1.15;;
18100;SDS011;9177;49.156;8.142;2023-08-30T13:28:08;2.15;;;1.40;;
18100;SDS011;9177;49.156;8.142;2023-08-30T13:30:35;2.88;;;1.40;;
18100;SDS011;9177;49.156;8.142;2023-08-30T13:33:03;2.65;;;1.45;;
18100;SDS011;9177;49.156;8.142;2023-08-30T13:35:31;1.40;;;1.30;;
18100;SDS011;9177;49.156;8.142;2023-08-30T13:37:59;1.25;;;1.15;;
18100;SDS011;9177;49.156;8.142;2023-08-30T13:40:26;1.35;;;1.25;;
18100;SDS011;9177;49.156;8.142;2023-08-30T13:42:54;1.55;;;1.45;;
18100;SDS011;9177;49.156;8.142;2023-08-30T13:45:21;1.40;;;1.30;;
18100;SDS011;9177;49.156;8.142;2023-08-30T13:47:48;1.50;;;1.35;;
18100;SDS011;9177;49.156;8.142;2023-08-30T13:50:18;0.90;;;0.90;;
18100;SDS011;9177;49.156;8.142;2023-08-30T13:52:45;1.55;;;1.27;;
18100;SDS011;9177;49.156;8.142;2023-08-30T13:55:14;1.45;;;1.25;;
18100;SDS011;9177;49.156;8.142;2023-08-30T13:57:41;1.23;;;1.10;;
18100;SDS011;9177;49.156;8.142;2023-08-30T14:00:10;1.30;;;1.20;;
18100;SDS011;9177;49.156;8.142;2023-08-30T14:02:38;1.52;;;1.15;;
18100;SDS011;9177;49.156;8.142;2023-08-30T14:05:07;1.30;;;1.20;;
18100;SDS011;9177;49.156;8.142;2023-08-30T14:07:34;1.80;;;1.45;;
18100;SDS011;9177;49.156;8.142;2023-08-30T14:10:02;1.35;;;1.20;;
18100;SDS011;9177;49.156;8.142;2023-08-30T14:12:31;1.55;;;1.40;;
18100;SDS011;9177;49.156;8.142;2023-08-30T14:14:59;1.60;;;1.25;;
18100;SDS011;9177;49.156;8.142;2023-08-30T14:17:29;4.20;;;1.45;;
18100;SDS011;9177;49.156;8.142;2023-08-30T14:19:56;1.52;;;1.20;;
18100;SDS011;9177;49.156;8.142;2023-08-30T14:22:23;2.03;;;1.13;;
18100;SDS011;9177;49.156;8.142;2023-08-30T14:24:51;1.92;;;1.15;;
18100;SDS011;9177;49.156;8.142;2023-08-30T14:27:19;4.82;;;1.13;;
18100;SDS011;9177;49.156;8.142;2023-08-30T14:29:48;3.55;;;1.50;;
18100;SDS011;9177;49.156;8.142;2023-08-30T14:32:16;3.40;;;1.27;;
18100;SDS011;9177;49.156;8.142;2023-08-30T14:34:43;2.50;;;1.67;;
18100;SDS011;9177;49.156;8.142;2023-08-30T14:37:11;3.40;;;1.60;;
18100;SDS011;9177;49.156;8.142;2023-08-30T14:39:38;3.00;;;1.45;;
18100;SDS011;9177;49.156;8.142;2023-08-30T14:42:06;2.55;;;1.00;;
18100;SDS011;9177;49.156;8.142;2023-08-30T14:44:34;3.10;;;1.50;;
18100;SDS011;9177;49.156;8.142;2023-08-30T14:47:03;3.22;;;1.30;;
18100;SDS011;9177;49.156;8.142;2023-08-30T14:49:30;1.83;;;1.35;;
18100;SDS011;9177;49.156;8.142;2023-08-30T14:51:58;3.10;;;1.35;;
18100;SDS011;9177;49.156;8.142;2023-08-30T14:54:26;1.77;;;1.60;;
18100;SDS011;9177;49.156;8.142;2023-08-30T14:56:53;1.48;;;1.02;;
18100;SDS011;9177;49.156;8.142;2023-08-30T14:59:21;1.67;;;1.35;;
18100;SDS011;9177;49.156;8.142;2023-08-30T15:01:48;2.13;;;1.50;;
18100;SDS011;9177;49.156;8.142;2023-08-30T15:04:17;1.60;;;1.50;;
18100;SDS011;9177;49.156;8.142;2023-08-30T15:06:44;1.50;;;1.33;;
18100;SDS011;9177;49.156;8.142;2023-08-30T15:09:11;2.17;;;1.45;;